Isle Au Haut, Maine
Current Conditions -  °F | °C
As of 10:35 PM on Saturday 22 Nov 2014 (Local Time) from KRKD Reporting Station
Few Clouds Few Clouds  
Wind Chill: 33°   Ceiling: Unl
Heat Index: 41°   Visibility: 10mi
Dew Point: 19°   Wind: 16mph
Humidity: 42%   Direction: 260°W
Pressure: 29.94"   Gusts: 23mph
Location:  44.07°N, 68.63°W
Report Text: KRKD 230335Z AUTO 26014G20KT 10SM FEW048 05/M07 A2994 RMK AO1
Loading
Personal Weather Stations






























Interactive Weather Map New forecast layout! Learn more

10-Day Weather Forecast

Advertisements
Track Severe Weather on mobile